CLT TRACON Summary / KCLT TAF
CLT TRACON Summary:
High pressure will build in from the northwest. Expect VFR conditions with a SCT-BKN050 deck through the afternoon. Surface winds will be northeast at 5kts. Flight Hazards in the TRACON airspace: None expected.

Updated: 2/27/2015 12:05 PM
CLT Terminal Aerodrome Forecast:

FTUS42 KGSP 272039 AAA
TAFCLT
TAF AMD
KCLT 272039Z 2721/2818 32004KT P6SM SCT050
     FM280000 03004KT P6SM BKN045
     FM280600 05008KT P6SM BKN030
     FM281400 05009KT P6SM OVC020=
CLT TRACON Area Remark:
NONE.
Convective Gate Forecast / Collaborative Convective Forecast Product / Vertical Wind Profile
Convective Gate Forecast
-->
AIRMETs & SIGMETS/ Southeast Radar loop / Satellite Image (click on image to enlarge)

Southeast Radar Loop

 



USA.gov is the U.S. government's official web portal to all federal, state and local government web resources and services.